Time;durP1;ratioP1;P1;durP2;ratioP2;P2;SDS_P1;SDS_P2;PMS_P1;PMS_P2;Temp;Humidity;BMP_temperature;BMP_pressure;BME280_temperature;BME280_humidity;BME280_pressure;Samples;Min_cycle;Max_cycle;Signal;HPM_P1;HPM_P2
2023/10/27 00:00:31;;;;;;;1.65;0.60;;;;;;;17.31;52.62;98958.97;5030635;28;20044;-61
2023/10/27 00:02:57;;;;;;;1.48;0.50;;;;;;;17.31;52.62;98952.72;5031945;28;20056;-60
2023/10/27 00:05:22;;;;;;;1.05;0.80;;;;;;;17.30;52.54;98959.22;5033600;28;20041;-60
2023/10/27 00:07:47;;;;;;;4.10;0.60;;;;;;;17.27;53.23;98949.66;5032682;28;20608;-60
2023/10/27 00:10:13;;;;;;;2.63;0.80;;;;;;;17.26;53.44;98955.28;5032684;28;20032;-61
2023/10/27 00:12:38;;;;;;;3.92;0.73;;;;;;;17.26;53.23;98950.69;5034112;28;20036;-61
2023/10/27 00:15:05;;;;;;;4.82;0.93;;;;;;;17.30;53.31;98945.69;5032517;28;20401;-60
2023/10/27 00:17:30;;;;;;;6.72;1.25;;;;;;;17.30;53.38;98951.09;5032510;28;20040;-60
2023/10/27 00:19:56;;;;;;;7.15;1.85;;;;;;;17.30;53.41;98940.28;5033639;28;20033;-60
2023/10/27 00:22:25;;;;;;;6.90;1.00;;;;;;;17.33;52.52;98945.25;5032181;28;20493;-60
2023/10/27 00:24:54;;;;;;;6.63;1.88;;;;;;;17.35;52.74;98943.16;5032433;28;20032;-61
2023/10/27 00:27:21;;;;;;;5.32;1.52;;;;;;;17.34;53.04;98938.78;5031799;28;20085;-60
2023/10/27 00:29:46;;;;;;;6.82;1.60;;;;;;;17.37;52.66;98946.44;5033456;28;20493;-60
2023/10/27 00:32:12;;;;;;;4.90;1.27;;;;;;;17.38;53.53;98937.28;5033452;28;20256;-61
2023/10/27 00:34:37;;;;;;;1.73;1.10;;;;;;;17.42;53.43;98938.50;5032098;28;20056;-60
2023/10/27 00:37:03;;;;;;;5.28;1.02;;;;;;;17.42;52.77;98938.50;5033267;28;20083;-60
2023/10/27 00:39:28;;;;;;;3.08;1.30;;;;;;;17.44;53.18;98941.84;5031922;28;20049;-60
2023/10/27 00:41:54;;;;;;;4.63;1.65;;;;;;;17.43;53.36;98934.75;5031929;28;20091;-61
2023/10/27 00:44:19;;;;;;;3.83;1.67;;;;;;;17.43;52.82;98930.19;5031788;28;20068;-61
2023/10/27 00:46:45;;;;;;;6.55;1.77;;;;;;;17.46;53.32;98931.63;5031859;28;20086;-61
2023/10/27 00:49:11;;;;;;;5.88;1.95;;;;;;;17.48;53.41;98927.63;5015280;28;20064;-61
2023/10/27 00:51:37;;;;;;;4.32;2.10;;;;;;;17.50;53.56;98918.47;5031694;28;20045;-60
2023/10/27 00:54:02;;;;;;;4.82;1.92;;;;;;;17.50;53.16;98923.88;5031877;28;20033;-61
2023/10/27 00:56:28;;;;;;;4.05;1.73;;;;;;;17.51;52.92;98925.53;5031678;28;20037;-60
2023/10/27 00:58:55;;;;;;;6.30;1.58;;;;;;;17.52;52.88;98927.19;5015153;28;20029;-60
2023/10/27 01:01:21;;;;;;;4.25;1.55;;;;;;;17.52;53.52;98922.63;5015339;28;20030;-60
2023/10/27 01:03:46;;;;;;;5.95;1.25;;;;;;;17.53;53.58;98923.44;5014991;28;20119;-60
2023/10/27 01:06:12;;;;;;;4.32;1.00;;;;;;;17.53;53.04;98923.44;5031399;28;20493;-61
2023/10/27 01:08:37;;;;;;;7.35;1.33;;;;;;;17.53;52.85;98913.44;5015091;28;20085;-61
2023/10/27 01:11:03;;;;;;;3.55;1.00;;;;;;;17.53;53.80;98918.88;5031806;28;20037;-61
2023/10/27 01:13:28;;;;;;;7.57;1.88;;;;;;;17.56;53.46;98918.44;5015191;28;20424;-60
2023/10/27 01:15:53;;;;;;;5.47;1.75;;;;;;;17.56;53.71;98917.63;5015325;28;20030;-61
2023/10/27 01:18:19;;;;;;;8.90;1.58;;;;;;;17.57;53.62;98917.41;5031555;28;20108;-61
2023/10/27 01:20:44;;;;;;;7.70;1.50;;;;;;;17.59;53.79;98914.47;5032629;28;20404;-60
2023/10/27 01:23:10;;;;;;;6.53;1.67;;;;;;;17.58;53.01;98908.22;5014909;28;20049;-61
2023/10/27 01:25:35;;;;;;;12.15;1.35;;;;;;;17.59;53.24;98904.47;5031527;28;20033;-61
2023/10/27 01:28:02;;;;;;;7.25;1.75;;;;;;;17.63;53.77;98902.13;5032672;28;20030;-61
2023/10/27 01:30:27;;;;;;;10.40;1.27;;;;;;;17.64;53.01;98910.06;5031449;28;20026;-60
2023/10/27 01:32:53;;;;;;;7.22;1.48;;;;;;;17.68;53.80;98905.84;5031415;28;20117;-61
2023/10/27 01:35:18;;;;;;;5.32;1.33;;;;;;;17.70;53.16;98909.16;5031234;28;20033;-61
2023/10/27 01:37:43;;;;;;;7.43;1.27;;;;;;;17.71;53.47;98905.41;5015393;28;20037;-61
2023/10/27 01:40:10;;;;;;;7.57;1.33;;;;;;;17.73;53.53;98913.28;5018622;28;20037;-60
2023/10/27 01:42:36;;;;;;;8.07;1.77;;;;;;;17.70;53.62;98916.47;5035189;28;20113;-61
2023/10/27 01:45:05;;;;;;;9.57;1.48;;;;;;;17.68;53.71;98911.25;5018831;28;20087;-61
2023/10/27 01:47:31;;;;;;;4.28;1.27;;;;;;;17.67;53.65;98904.19;5036339;28;20520;-59
2023/10/27 01:49:56;;;;;;;6.63;2.25;;;;;;;17.64;53.58;98904.66;5018645;28;20018;-61
2023/10/27 01:52:22;;;;;;;16.63;1.98;;;;;;;17.65;54.51;98905.44;5018601;28;20072;-60
2023/10/27 01:54:48;;;;;;;7.78;1.27;;;;;;;17.64;54.35;98901.09;5034948;28;20056;-61
2023/10/27 01:57:14;;;;;;;3.60;1.45;;;;;;;17.63;54.40;98902.97;5036177;28;20495;-60
2023/10/27 01:59:39;;;;;;;5.18;1.08;;;;;;;17.59;54.38;98890.91;5034974;28;20021;-60
2023/10/27 02:02:04;;;;;;;10.40;1.40;;;;;;;17.59;54.36;98896.34;5035934;28;20083;-61
2023/10/27 02:04:34;;;;;;;4.97;1.00;;;;;;;17.57;54.57;98889.47;5034743;28;20067;-60
2023/10/27 02:07:00;;;;;;;7.57;1.50;;;;;;;17.57;53.62;98887.63;5034636;28;20037;-60
2023/10/27 02:09:25;;;;;;;10.60;1.20;;;;;;;17.56;54.59;98880.53;5034695;28;20022;-61
2023/10/27 02:11:50;;;;;;;5.32;1.52;;;;;;;17.53;53.99;98875.56;5036228;28;20029;-61
2023/10/27 02:14:16;;;;;;;8.30;1.80;;;;;;;17.52;54.69;98882.00;5026376;28;20124;-60
2023/10/27 02:16:41;;;;;;;7.03;1.23;;;;;;;17.47;54.80;98871.03;5034761;28;20097;-61
2023/10/27 02:19:08;;;;;;;8.13;1.45;;;;;;;17.42;54.74;98868.13;5034395;28;20183;-61
2023/10/27 02:21:33;;;;;;;6.18;2.00;;;;;;;17.42;54.48;98871.66;5034817;28;20045;-63
2023/10/27 02:23:59;;;;;;;12.48;1.80;;;;;;;17.38;54.33;98870.47;5034456;28;20506;-61
2023/10/27 02:26:24;;;;;;;10.43;2.08;;;;;;;17.37;55.04;98866.09;5035848;28;20052;-61
2023/10/27 02:28:49;;;;;;;5.95;2.00;;;;;;;17.39;54.92;98865.88;5034383;28;20501;-61
2023/10/27 02:31:15;;;;;;;3.88;1.30;;;;;;;17.39;55.11;98858.56;5017800;28;20025;-61
2023/10/27 02:33:40;;;;;;;6.00;1.40;;;;;;;17.41;55.01;98861.06;5034425;28;20025;-62
2023/10/27 02:36:05;;;;;;;6.55;1.25;;;;;;;17.41;54.96;98858.38;5035494;28;20028;-61
2023/10/27 02:38:31;;;;;;;6.38;1.27;;;;;;;17.41;54.81;98861.06;5017610;28;20028;-61
2023/10/27 02:40:56;;;;;;;5.88;1.83;;;;;;;17.41;55.53;98858.38;5035250;28;20095;-60
2023/10/27 02:43:22;;;;;;;6.35;1.23;;;;;;;17.40;55.14;98854.00;5017736;28;20072;-61
2023/10/27 02:45:47;;;;;;;2.70;0.82;;;;;;;17.41;54.93;98856.50;5017513;28;20580;-61
2023/10/27 02:48:13;;;;;;;13.20;2.20;;;;;;;17.41;54.60;98844.84;5035316;28;20501;-61
2023/10/27 02:50:38;;;;;;;7.68;1.48;;;;;;;17.41;55.09;98850.25;5034451;28;20025;-61
2023/10/27 02:53:04;;;;;;;3.22;1.05;;;;;;;17.41;54.80;98839.41;5035107;28;21672;-62
2023/10/27 02:55:29;;;;;;;6.07;1.35;;;;;;;17.44;55.53;98844.38;5017681;28;20037;-61
2023/10/27 02:57:55;;;;;;;1.42;0.82;;;;;;;17.41;55.74;98839.41;5033825;28;20091;-61
2023/10/27 03:00:21;;;;;;;6.68;1.70;;;;;;;17.44;54.74;98839.81;5034042;28;20080;-61
2023/10/27 03:02:47;;;;;;;5.47;1.50;;;;;;;17.41;55.06;98839.41;5017394;28;20037;-60
2023/10/27 03:05:12;;;;;;;5.20;1.83;;;;;;;17.42;55.38;98835.63;5034071;28;20026;-61
2023/10/27 03:07:38;;;;;;;3.45;1.88;;;;;;;17.42;55.27;98833.75;5033918;28;20033;-61
2023/10/27 03:10:03;;;;;;;5.20;1.50;;;;;;;17.44;55.30;98828.16;5033868;28;20033;-61
2023/10/27 03:12:29;;;;;;;4.75;0.90;;;;;;;17.43;54.94;98832.72;5017058;28;20032;-61
2023/10/27 03:14:54;;;;;;;4.93;1.25;;;;;;;17.46;54.39;98836.88;5033524;28;20037;-60
2023/10/27 03:17:20;;;;;;;4.65;2.45;;;;;;;17.47;55.42;98827.72;5033602;28;20053;-60
2023/10/27 03:19:45;;;;;;;2.22;1.13;;;;;;;17.47;54.93;98833.13;5034927;28;20397;-61
2023/10/27 03:22:10;;;;;;;4.80;2.00;;;;;;;17.47;54.85;98830.41;5033826;28;20025;-62
2023/10/27 03:24:36;;;;;;;4.68;0.90;;;;;;;17.43;55.27;98827.31;5034640;28;20033;-61
2023/10/27 03:27:01;;;;;;;3.22;1.40;;;;;;;17.46;54.79;98834.16;5035962;28;20035;-66
2023/10/27 03:29:27;;;;;;;2.85;1.52;;;;;;;17.44;55.76;98833.56;5036631;28;20104;-66
2023/10/27 03:31:52;;;;;;;4.82;1.48;;;;;;;17.46;55.48;98828.75;5035275;28;20074;-63
2023/10/27 03:34:17;;;;;;;7.70;1.70;;;;;;;17.43;55.77;98821.91;5033887;28;20087;-63
2023/10/27 03:36:43;;;;;;;3.00;1.17;;;;;;;17.40;55.10;98816.09;5033458;28;20037;-63
2023/10/27 03:39:08;;;;;;;4.13;1.25;;;;;;;17.37;55.73;98816.53;5033448;28;20037;-62
2023/10/27 03:41:35;;;;;;;4.80;1.33;;;;;;;17.34;55.19;98811.56;5017033;28;20045;-62
2023/10/27 03:44:00;;;;;;;6.85;0.98;;;;;;;17.32;55.47;98808.25;5017487;28;20033;-62
2023/10/27 03:46:26;;;;;;;6.00;1.15;;;;;;;17.31;56.10;98803.88;5034490;28;20033;-63
2023/10/27 03:48:51;;;;;;;6.22;1.35;;;;;;;17.29;56.34;98801.41;5033126;28;20032;-62
2023/10/27 03:51:16;;;;;;;4.13;1.30;;;;;;;17.27;55.18;98806.22;5033270;28;20053;-61
2023/10/27 03:53:42;;;;;;;8.57;1.23;;;;;;;17.27;55.42;98795.41;5034629;28;20034;-62
2023/10/27 03:56:07;;;;;;;3.58;1.20;;;;;;;17.26;55.60;98795.63;5016667;28;20026;-62
2023/10/27 03:58:32;;;;;;;8.13;0.85;;;;;;;17.26;56.28;98801.03;5032935;28;20382;-62
2023/10/27 04:00:58;;;;;;;4.63;1.15;;;;;;;17.25;55.38;98796.69;5031811;28;20037;-62
2023/10/27 04:03:23;;;;;;;5.55;1.08;;;;;;;17.21;56.39;98801.69;5033319;28;20042;-62
2023/10/27 04:05:49;;;;;;;3.25;0.80;;;;;;;17.19;56.39;98800.28;5032672;28;20156;-62
2023/10/27 04:08:14;;;;;;;6.05;1.30;;;;;;;17.14;56.58;98789.28;5032611;28;20080;-61
2023/10/27 04:10:39;;;;;;;4.35;1.40;;;;;;;17.16;56.09;98798.00;5016696;28;20029;-62
2023/10/27 04:13:07;;;;;;;4.68;1.23;;;;;;;17.14;56.20;98792.00;5034522;28;20029;-64
2023/10/27 04:15:33;;;;;;;6.88;1.27;;;;;;;17.08;56.23;98774.78;5032318;28;20079;-67
2023/10/27 04:18:00;;;;;;;7.28;1.10;;;;;;;17.06;56.08;98782.25;5032486;28;20449;-66
2023/10/27 04:20:25;;;;;;;5.28;0.95;;;;;;;17.04;56.01;98783.53;5012762;28;20143;-62
2023/10/27 04:22:50;;;;;;;4.80;1.42;;;;;;;17.00;56.72;98779.63;5012706;28;20064;-63
2023/10/27 04:25:16;;;;;;;4.03;1.70;;;;;;;17.00;56.42;98777.72;5011828;28;20046;-62
2023/10/27 04:27:42;;;;;;;1.60;0.93;;;;;;;16.97;57.08;98775.47;5012666;28;20042;-62
2023/10/27 04:30:08;;;;;;;5.60;1.27;;;;;;;17.00;56.20;98774.22;5012373;28;20032;-62
2023/10/27 04:32:38;;;;;;;1.80;0.70;;;;;;;17.01;57.13;98773.16;5013889;28;20034;-62
2023/10/27 04:35:04;;;;;;;10.63;1.27;;;;;;;17.01;57.41;98767.72;5011428;28;20045;-62
2023/10/27 04:37:32;;;;;;;5.82;1.58;;;;;;;17.02;56.55;98769.41;5013910;28;20560;-62
2023/10/27 04:40:00;;;;;;;2.80;1.60;;;;;;;17.05;56.77;98777.91;4996204;28;20406;-61
2023/10/27 04:42:26;;;;;;;5.63;1.50;;;;;;;17.07;57.03;98772.25;5011971;28;20025;-62
2023/10/27 04:44:51;;;;;;;5.15;1.38;;;;;;;17.06;56.57;98771.44;5012376;28;20524;-62
2023/10/27 04:47:17;;;;;;;2.38;1.00;;;;;;;17.09;57.13;98772.88;5027244;28;20400;-62
2023/10/27 04:49:42;;;;;;;3.10;0.93;;;;;;;17.12;56.71;98778.66;5030891;28;20497;-63
2023/10/27 04:52:07;;;;;;;1.92;0.80;;;;;;;17.14;56.95;98775.75;5031882;28;20045;-62
2023/10/27 04:54:34;;;;;;;5.38;1.10;;;;;;;17.14;57.36;98773.06;5031837;28;20075;-62
2023/10/27 04:57:03;;;;;;;1.48;0.98;;;;;;;17.14;57.48;98773.06;5031943;28;20543;-62
2023/10/27 04:59:28;;;;;;;3.15;1.00;;;;;;;17.14;56.74;98781.97;5033038;28;20038;-62
2023/10/27 05:01:55;;;;;;;4.43;1.27;;;;;;;17.15;57.29;98783.63;5015196;28;20035;-61
2023/10/27 05:04:20;;;;;;;11.13;1.05;;;;;;;17.14;57.59;98773.06;5031877;28;20041;-62
2023/10/27 05:06:46;;;;;;;5.80;1.20;;;;;;;17.17;56.61;98772.63;5031707;28;20033;-62
2023/10/27 05:09:12;;;;;;;2.78;0.90;;;;;;;17.19;56.76;98778.63;5031682;28;20029;-62
2023/10/27 05:11:39;;;;;;;4.28;0.70;;;;;;;17.20;57.41;98777.56;5031832;28;20125;-62
2023/10/27 05:14:04;;;;;;;3.15;1.38;;;;;;;17.20;57.48;98774.84;5032434;28;20496;-63
2023/10/27 05:16:30;;;;;;;5.53;0.70;;;;;;;17.21;57.18;98779.22;5015099;28;20108;-63
2023/10/27 05:18:56;;;;;;;3.85;0.80;;;;;;;17.19;57.70;98774.03;5015568;28;20045;-63
2023/10/27 05:21:26;;;;;;;5.15;0.88;;;;;;;17.17;57.70;98761.78;5024864;28;20083;-63
2023/10/27 05:23:52;;;;;;;2.95;1.05;;;;;;;17.17;57.01;98772.63;5032888;28;20057;-62
2023/10/27 05:26:17;;;;;;;3.13;0.40;;;;;;;17.14;57.06;98768.44;5031497;28;20057;-61
2023/10/27 05:28:43;;;;;;;2.75;0.73;;;;;;;17.14;57.62;98767.66;5015194;28;20038;-61
2023/10/27 05:31:08;;;;;;;1.30;0.60;;;;;;;17.12;57.38;98769.72;5031828;28;20025;-62
2023/10/27 05:33:33;;;;;;;0.90;0.85;;;;;;;17.16;57.61;98771.78;5032048;28;20037;-59
2023/10/27 05:35:59;;;;;;;4.85;1.10;;;;;;;17.18;57.95;98768.84;5032979;28;20083;-60
2023/10/27 05:38:24;;;;;;;2.75;1.40;;;;;;;17.19;57.44;98771.34;5031614;28;20030;-60
2023/10/27 05:40:49;;;;;;;3.67;1.25;;;;;;;17.18;57.54;98766.13;5032837;28;20034;-60
2023/10/27 05:43:17;;;;;;;1.65;1.00;;;;;;;17.19;57.82;98765.94;5031623;28;20029;-61
2023/10/27 05:45:44;;;;;;;2.28;0.98;;;;;;;17.18;57.14;98768.84;5031663;28;20075;-60
2023/10/27 05:48:09;;;;;;;2.92;0.98;;;;;;;17.21;57.97;98768.41;5032854;28;20501;-60
2023/10/27 05:50:34;;;;;;;1.58;0.82;;;;;;;17.22;57.88;98765.50;5022823;28;20037;-61
2023/10/27 05:53:00;;;;;;;2.22;1.10;;;;;;;17.26;58.16;98773.97;5026024;28;20034;-61
2023/10/27 05:55:25;;;;;;;1.17;0.85;;;;;;;17.25;57.00;98775.03;5014990;28;20038;-60
2023/10/27 05:57:52;;;;;;;1.60;1.05;;;;;;;17.25;58.05;98769.63;5033282;28;20045;-60
2023/10/27 06:00:18;;;;;;;2.30;0.90;;;;;;;17.28;57.35;98780.00;5031855;28;20041;-60
2023/10/27 06:02:43;;;;;;;3.22;1.00;;;;;;;17.29;57.88;98781.63;5032226;28;20042;-61
2023/10/27 06:05:09;;;;;;;3.60;0.80;;;;;;;17.30;57.24;98778.72;5032588;28;20413;-61
2023/10/27 06:07:34;;;;;;;1.52;0.80;;;;;;;17.31;57.38;98774.94;5031104;28;20033;-60
2023/10/27 06:10:00;;;;;;;3.35;1.08;;;;;;;17.29;58.20;98782.47;5032667;28;20036;-60
2023/10/27 06:12:25;;;;;;;2.13;0.82;;;;;;;17.28;57.55;98788.13;5031216;28;20107;-60
2023/10/27 06:14:51;;;;;;;1.35;0.80;;;;;;;17.31;57.79;98795.78;5032616;28;20029;-60
2023/10/27 06:17:16;;;;;;;3.25;0.90;;;;;;;17.27;57.48;98798.13;5032329;28;20038;-59
2023/10/27 06:19:42;;;;;;;2.60;0.70;;;;;;;17.34;57.74;98806.16;5031002;28;20034;-60
2023/10/27 06:22:09;;;;;;;0.75;0.65;;;;;;;17.34;58.08;98811.56;5032404;28;20036;-60
2023/10/27 06:24:35;;;;;;;1.98;1.33;;;;;;;17.38;57.67;98819.03;5031368;28;20045;-60
2023/10/27 06:27:03;;;;;;;2.25;1.52;;;;;;;17.34;57.43;98809.69;5036016;28;20091;-60
2023/10/27 06:29:28;;;;;;;0.70;0.70;;;;;;;17.37;58.66;98821.94;5034593;28;20060;-60
2023/10/27 06:31:53;;;;;;;1.08;1.00;;;;;;;17.37;57.84;98821.94;5034607;28;20065;-60
2023/10/27 06:34:18;;;;;;;2.17;1.63;;;;;;;17.39;57.60;98817.97;5033405;28;20036;-60
2023/10/27 06:36:44;;;;;;;0.82;0.65;;;;;;;17.41;57.35;98823.19;5034288;28;20034;-60
2023/10/27 06:39:10;;;;;;;1.83;1.15;;;;;;;17.43;57.57;98826.47;5035254;28;20042;-60
2023/10/27 06:41:35;;;;;;;3.25;1.25;;;;;;;17.41;58.17;98824.00;5035502;28;20471;-61
2023/10/27 06:44:01;;;;;;;2.67;1.20;;;;;;;17.38;58.07;98835.28;5017803;28;20040;-60
2023/10/27 06:46:26;;;;;;;4.25;1.85;;;;;;;17.45;57.76;98840.63;5035699;28;20120;-60
2023/10/27 06:48:52;;;;;;;3.53;2.20;;;;;;;17.45;57.60;98837.91;5034038;28;20112;-60
2023/10/27 06:51:17;;;;;;;1.65;1.42;;;;;;;17.49;57.32;98844.53;5035187;28;20029;-60
2023/10/27 06:53:43;;;;;;;4.20;1.70;;;;;;;17.51;58.07;98847.84;5034065;28;20045;-60
2023/10/27 06:56:08;;;;;;;4.45;1.65;;;;;;;17.52;58.12;98846.81;5017439;28;20036;-59
2023/10/27 06:58:33;;;;;;;6.05;2.03;;;;;;;17.54;57.58;98850.16;5035284;28;20060;-59
2023/10/27 07:01:08;;;;;;;3.00;1.80;;;;;;;17.53;57.92;98853.91;5035082;28;20049;-59
2023/10/27 07:03:35;;;;;;;3.25;1.42;;;;;;;17.54;57.57;98855.56;5034657;28;20054;-59
2023/10/27 07:06:01;;;;;;;5.72;1.90;;;;;;;17.57;57.40;98860.53;5033848;28;20037;-60
2023/10/27 07:08:26;;;;;;;2.83;1.83;;;;;;;17.59;57.46;98861.13;5033891;28;20083;-60
2023/10/27 07:10:57;;;;;;;5.95;2.53;;;;;;;17.59;57.86;98863.84;5035026;28;20045;-60
2023/10/27 07:13:24;;;;;;;2.67;1.83;;;;;;;17.60;57.55;98856.56;5033713;28;20504;-61
2023/10/27 07:15:49;;;;;;;4.35;2.33;;;;;;;17.59;57.36;98855.72;5033733;28;20031;-61
2023/10/27 07:18:14;;;;;;;3.30;2.22;;;;;;;17.61;57.92;98867.19;5034893;28;20063;-61
2023/10/27 07:20:40;;;;;;;4.35;2.30;;;;;;;17.60;57.49;98859.25;5034715;28;20083;-61
2023/10/27 07:23:05;;;;;;;5.55;2.55;;;;;;;17.63;57.65;98870.47;5033326;28;20034;-60
2023/10/27 07:25:31;;;;;;;5.28;2.50;;;;;;;17.64;57.87;98869.44;5033194;28;20038;-61
2023/10/27 07:27:57;;;;;;;5.43;2.72;;;;;;;17.68;57.34;98878.75;5034707;28;20040;-60
2023/10/27 07:30:22;;;;;;;3.88;3.00;;;;;;;17.70;57.21;98882.06;5032154;28;20044;-60
2023/10/27 07:32:48;;;;;;;8.32;3.47;;;;;;;17.67;57.80;98874.38;5033319;28;20083;-59
2023/10/27 07:35:13;;;;;;;6.13;3.88;;;;;;;17.75;57.95;98884.97;5033088;28;20034;-59
2023/10/27 07:37:38;;;;;;;5.20;3.13;;;;;;;17.79;57.25;98894.28;5033109;28;20120;-59
2023/10/27 07:40:05;;;;;;;3.92;2.38;;;;;;;17.81;57.30;98884.03;5016643;28;20401;-59
2023/10/27 07:42:31;;;;;;;7.10;3.13;;;;;;;17.83;57.49;98883.84;5034341;28;20040;-59
2023/10/27 07:44:56;;;;;;;5.78;2.78;;;;;;;17.86;57.62;98889.66;5032973;28;20041;-59
2023/10/27 07:47:22;;;;;;;8.93;2.33;;;;;;;17.88;57.61;98890.25;5033997;28;20038;-59
2023/10/27 07:49:47;;;;;;;8.38;2.97;;;;;;;17.92;58.02;98896.06;5033003;28;20029;-59
2023/10/27 07:52:12;;;;;;;6.63;2.42;;;;;;;17.90;57.35;98896.25;5034108;28;20148;-59
2023/10/27 07:54:38;;;;;;;3.78;2.15;;;;;;;17.91;57.76;98897.94;5034297;28;20041;-59
2023/10/27 07:57:04;;;;;;;8.25;2.05;;;;;;;17.91;57.53;98892.50;5034223;28;20038;-59
2023/10/27 07:59:30;;;;;;;3.20;1.52;;;;;;;17.97;57.17;98905.16;5034146;28;20034;-59
2023/10/27 08:01:57;;;;;;;6.18;2.20;;;;;;;17.97;57.46;98904.31;5032698;28;20489;-60
2023/10/27 08:04:23;;;;;;;2.58;1.95;;;;;;;17.98;57.53;98904.09;5032812;28;20559;-58
2023/10/27 08:06:49;;;;;;;3.40;1.48;;;;;;;17.96;57.33;98895.38;5016399;28;20519;-59
2023/10/27 08:09:14;;;;;;;4.50;2.00;;;;;;;18.01;57.23;98909.06;5032784;28;20021;-59
2023/10/27 08:11:39;;;;;;;5.50;2.10;;;;;;;18.06;57.80;98919.25;5033888;28;20063;-60
2023/10/27 08:14:05;;;;;;;3.30;1.85;;;;;;;18.07;57.49;98923.59;5033730;28;20079;-60
2023/10/27 08:16:30;;;;;;;4.07;2.00;;;;;;;18.04;57.59;98926.75;5032461;28;20160;-60
2023/10/27 08:18:57;;;;;;;4.35;1.90;;;;;;;18.02;57.36;98920.72;5032447;28;20056;-59
2023/10/27 08:21:23;;;;;;;3.53;2.25;;;;;;;18.03;57.51;98920.50;5016215;28;20570;-60
2023/10/27 08:23:48;;;;;;;4.38;1.42;;;;;;;18.04;57.50;98911.31;5034161;28;20124;-59
2023/10/27 08:26:13;;;;;;;3.50;1.88;;;;;;;18.06;57.63;98913.81;5017244;28;20039;-62
2023/10/27 08:28:39;;;;;;;2.95;1.67;;;;;;;18.07;57.20;98914.63;5033719;28;20099;-60
2023/10/27 08:31:04;;;;;;;1.45;1.00;;;;;;;18.08;57.24;98922.56;5032566;28;20101;-61
2023/10/27 08:33:30;;;;;;;6.45;1.33;;;;;;;18.10;57.54;98925.03;5033055;28;20129;-63
2023/10/27 08:36:03;;;;;;;6.93;1.80;;;;;;;18.11;56.93;98929.41;5033342;28;20052;-62
2023/10/27 08:38:29;;;;;;;2.45;1.55;;;;;;;18.11;57.16;98926.69;5032140;28;20024;-60
2023/10/27 08:40:55;;;;;;;4.47;1.70;;;;;;;18.14;57.33;98927.09;5033131;28;20022;-60
2023/10/27 08:43:22;;;;;;;3.40;2.17;;;;;;;18.23;57.06;98925.72;5015478;28;20025;-60
2023/10/27 08:45:48;;;;;;;3.58;2.13;;;;;;;18.29;56.86;98930.25;5033289;28;20021;-59
2023/10/27 08:48:14;;;;;;;4.38;2.28;;;;;;;18.33;57.16;98925.19;5032800;28;20502;-59
2023/10/27 08:50:40;;;;;;;5.20;2.22;;;;;;;18.34;57.86;98921.44;5032825;28;20075;-59
2023/10/27 08:53:09;;;;;;;7.35;2.63;;;;;;;18.42;57.54;98930.13;5033074;28;20013;-59
2023/10/27 08:55:35;;;;;;;10.30;3.05;;;;;;;18.45;57.23;98942.38;5015654;28;20036;-59
2023/10/27 08:58:00;;;;;;;3.85;2.65;;;;;;;18.43;57.07;98928.19;5031931;28;20103;-59
2023/10/27 09:00:26;;;;;;;7.00;3.28;;;;;;;18.48;57.83;98933.84;5031941;28;20057;-59
2023/10/27 09:02:51;;;;;;;6.28;3.40;;;;;;;18.53;57.25;98939.41;5030693;28;20040;-59
2023/10/27 09:05:17;;;;;;;6.95;3.38;;;;;;;18.62;57.18;98943.44;5033641;28;20071;-59
2023/10/27 09:07:42;;;;;;;7.57;3.58;;;;;;;18.63;56.95;98936.97;5031902;28;20527;-59
2023/10/27 09:10:08;;;;;;;8.05;3.28;;;;;;;18.70;57.28;98937.75;5031754;28;20037;-59
2023/10/27 09:12:37;;;;;;;7.10;3.80;;;;;;;18.74;56.84;98940.78;5031780;28;20060;-59
2023/10/27 09:15:08;;;;;;;8.63;3.65;;;;;;;18.77;57.23;98946.59;5032299;28;20033;-59
2023/10/27 09:17:52;;;;;;;10.00;5.07;;;;;;;18.79;57.32;98944.47;5034095;28;20029;-59
2023/10/27 09:20:20;;;;;;;6.53;3.97;;;;;;;18.82;57.44;98946.75;5031650;28;20080;-59
2023/10/27 09:22:56;;;;;;;10.57;4.35;;;;;;;18.87;57.19;98946.88;5032930;28;20036;-59
2023/10/27 09:25:22;;;;;;;7.57;5.00;;;;;;;18.87;57.13;98949.59;5031604;28;20060;-59
2023/10/27 09:27:49;;;;;;;11.45;4.30;;;;;;;18.89;57.06;98952.94;5031427;28;20129;-59
2023/10/27 09:30:34;;;;;;;10.80;4.53;;;;;;;18.96;57.14;98964.50;5029771;28;20038;-59
2023/10/27 09:33:23;;;;;;;10.88;4.47;;;;;;;18.99;57.15;98961.34;5011729;28;20030;-59
2023/10/27 09:35:49;;;;;;;7.28;4.43;;;;;;;18.99;56.94;98964.06;5011749;28;20030;-59
2023/10/27 09:38:16;;;;;;;6.95;4.13;;;;;;;19.02;57.07;98962.75;5011972;28;20520;-59
2023/10/27 09:40:43;;;;;;;9.60;4.55;;;;;;;19.06;57.35;98970.25;4995408;28;20034;-59
2023/10/27 09:43:19;;;;;;;12.18;4.78;;;;;;;19.13;56.88;98973.69;5012031;28;20153;-59
2023/10/27 09:46:14;;;;;;;8.35;4.13;;;;;;;19.27;56.85;98974.31;5013073;28;20617;-59
2023/10/27 09:48:42;;;;;;;10.73;5.03;;;;;;;19.39;56.58;98985.25;5004342;28;20073;-60
2023/10/27 09:51:10;;;;;;;10.82;3.60;;;;;;;19.45;56.26;98974.31;5012079;28;20016;-59
2023/10/27 09:53:37;;;;;;;10.20;3.92;;;;;;;19.53;56.12;98975.84;5013117;28;20037;-59
2023/10/27 09:56:03;;;;;;;7.72;3.42;;;;;;;19.59;55.96;98977.66;5012115;28;20033;-59
2023/10/27 09:58:30;;;;;;;5.82;3.22;;;;;;;19.66;55.90;98973.75;5012141;28;20512;-59
2023/10/27 10:00:56;;;;;;;11.77;4.00;;;;;;;19.68;56.14;98978.97;5015382;28;20121;-59
2023/10/27 10:03:24;;;;;;;6.80;3.53;;;;;;;19.73;56.19;98981.81;5015908;28;20034;-59
2023/10/27 10:06:12;;;;;;;5.93;3.40;;;;;;;19.75;56.12;98985.94;5019419;28;20030;-59
2023/10/27 10:08:38;;;;;;;7.13;3.20;;;;;;;19.76;56.62;98981.34;5017472;28;20052;-58
2023/10/27 10:11:34;;;;;;;7.80;3.70;;;;;;;19.80;56.04;98985.25;5016474;28;20121;-59
2023/10/27 10:14:00;;;;;;;9.13;4.03;;;;;;;19.82;55.88;98985.81;5013632;28;20505;-59
2023/10/27 10:16:25;;;;;;;10.50;3.90;;;;;;;19.84;56.23;98989.16;4998709;28;20117;-59
2023/10/27 10:18:51;;;;;;;9.90;3.20;;;;;;;19.84;55.63;98986.44;5015112;28;20340;-59
2023/10/27 10:21:37;;;;;;;8.50;3.85;;;;;;;19.94;55.98;99000.28;5015004;28;20030;-59
2023/10/27 10:24:03;;;;;;;11.32;3.38;;;;;;;20.02;55.92;98991.78;5014897;28;20030;-59
2023/10/27 10:27:04;;;;;;;8.77;3.08;;;;;;;20.13;55.74;98990.94;5016076;28;20401;-59
2023/10/27 10:29:30;;;;;;;15.15;3.15;;;;;;;20.23;55.14;98993.94;4998491;28;20037;-59
2023/10/27 10:32:30;;;;;;;6.53;3.30;;;;;;;20.33;55.26;98987.91;5014205;28;20030;-61
2023/10/27 10:35:23;;;;;;;6.63;2.38;;;;;;;20.39;55.06;98991.56;5014631;28;20038;-59
2023/10/27 10:37:51;;;;;;;11.50;2.70;;;;;;;20.44;55.05;98978.91;5014422;28;20036;-59
2023/10/27 10:40:26;;;;;;;7.10;2.72;;;;;;;20.55;54.52;98978.06;5014567;28;20034;-59
2023/10/27 10:43:36;;;;;;;7.32;4.28;;;;;;;20.66;54.99;98987.31;5015371;28;20117;-59
2023/10/27 10:46:12;;;;;;;18.58;2.55;;;;;;;20.71;55.08;98976.53;5016022;28;20133;-59
2023/10/27 10:48:44;;;;;;;8.52;3.22;;;;;;;20.78;55.41;98972.59;5014499;28;20409;-59
2023/10/27 10:51:29;;;;;;;11.95;2.83;;;;;;;20.86;54.64;98976.81;4998594;28;20026;-59
2023/10/27 10:53:55;;;;;;;12.13;2.55;;;;;;;20.87;54.87;98967.59;5015340;28;20050;-59
2023/10/27 10:56:20;;;;;;;7.10;2.17;;;;;;;20.88;54.31;98974.72;5014434;28;20385;-59
2023/10/27 10:58:46;;;;;;;7.32;2.17;;;;;;;20.87;54.91;98978.50;4997866;28;20022;-59
2023/10/27 11:01:16;;;;;;;5.10;2.40;;;;;;;20.85;55.27;98969.75;5030681;28;20084;-59
2023/10/27 11:03:47;;;;;;;4.32;2.45;;;;;;;20.85;55.09;98975.19;5014176;28;20065;-59
2023/10/27 11:06:12;;;;;;;10.60;2.47;;;;;;;20.79;54.85;98970.72;5030866;28;20037;-59
2023/10/27 11:08:37;;;;;;;4.40;2.50;;;;;;;20.76;54.85;98979.34;5016010;28;20038;-59
2023/10/27 11:11:04;;;;;;;8.15;2.22;;;;;;;20.86;54.98;98972.22;5014826;28;20493;-59
2023/10/27 11:13:31;;;;;;;4.80;1.85;;;;;;;20.95;54.97;98975.38;5014138;28;20421;-59
2023/10/27 11:15:58;;;;;;;8.80;2.78;;;;;;;20.94;54.56;98973.72;5013740;28;20117;-59
2023/10/27 11:18:26;;;;;;;7.25;2.00;;;;;;;20.94;54.46;98984.63;4997576;28;20101;-60
2023/10/27 11:20:52;;;;;;;9.25;2.15;;;;;;;20.90;54.27;98978.00;5015007;28;20045;-60
2023/10/27 11:23:17;;;;;;;8.93;2.33;;;;;;;20.85;54.52;98980.63;4997563;28;20034;-59
2023/10/27 11:25:44;;;;;;;5.00;2.17;;;;;;;20.83;54.93;98983.59;5013643;28;20057;-60
2023/10/27 11:28:16;;;;;;;4.82;2.00;;;;;;;20.78;54.16;98988.09;5013687;28;20058;-59
2023/10/27 11:30:42;;;;;;;8.82;1.70;;;;;;;20.71;54.15;98992.84;5014891;28;20034;-60